Portada
METAR-TAF:

METAR-TAF

Aeropuertos :

Tottori, Japón

latitud: 35-32N, longitud: 134-10E, altitud: 15 m

Observación

El informe se hizo hace 55 minutos, a las 02:00 UTC
Viento 6 kt del noreste
Temperatura 17°C
Humedad 88%
Presión 1013 hPa
Visibilidad: 8000 m
Escasas nubes a una altura de 2000 ft
Nubes dispersas a una altura de 8000 ft
Cielo cubierto a una altura de 10000 ft
lluvia ligera

METAR: RJOR 220200Z 05006KT 8000 -RA FEW020 SCT080 OVC100 17/15 Q1013

Hora: 11:55 (02:55 UTC)


TAF: falta

Observaciones y pronósticos meteorológicos de más de 4000 aeropuertos (mensajes METAR y TAF).

Los puntos amarillos y rojos representan las estaciones disponibles.

Ponga el ratón en el punto deseado para ver el nombre de la estación.

Haga clic para ver las observaciones y los pronósticos meteorológicos.

Para cambiar el mapa : haga clic en los botones verdes con una cruz de color negro para hacer un zoom, en el botón verde con un guión para alejar o en las flechas verdes para mapas adyacentes.


METAR-TAF: